地図

経路データ

SID SEASON NUMBER BASIN SUBBASIN NAME ISO_TIME NATURE LAT LON WMO_WIND WMO_PRES WMO_AGENCY TRACK_TYPE DIST2LAND LANDFALL IFLAG USA_AGENCY USA_ATCF_ID USA_LAT USA_LON USA_RECORD USA_STATUS USA_WIND USA_PRES USA_SSHS USA_R34_NE USA_R34_SE USA_R34_SW USA_R34_NW USA_R50_NE USA_R50_SE USA_R50_SW USA_R50_NW USA_R64_NE USA_R64_SE USA_R64_SW USA_R64_NW USA_POCI USA_ROCI USA_RMW USA_EYE TOKYO_LAT TOKYO_LON TOKYO_GRADE TOKYO_WIND TOKYO_PRES TOKYO_R50_DIR TOKYO_R50_LONG TOKYO_R50_SHORT TOKYO_R30_DIR TOKYO_R30_LONG TOKYO_R30_SHORT TOKYO_LAND CMA_LAT CMA_LON CMA_CAT CMA_WIND CMA_PRES HKO_LAT HKO_LON HKO_CAT HKO_WIND HKO_PRES NEWDELHI_LAT NEWDELHI_LON NEWDELHI_GRADE NEWDELHI_WIND NEWDELHI_PRES NEWDELHI_CI NEWDELHI_DP NEWDELHI_POCI REUNION_LAT REUNION_LON REUNION_TYPE REUNION_WIND REUNION_PRES REUNION_TNUM REUNION_CI REUNION_RMW REUNION_R34_NE REUNION_R34_SE REUNION_R34_SW REUNION_R34_NW REUNION_R50_NE REUNION_R50_SE REUNION_R50_SW REUNION_R50_NW REUNION_R64_NE REUNION_R64_SE REUNION_R64_SW REUNION_R64_NW BOM_LAT BOM_LON BOM_TYPE BOM_WIND BOM_PRES BOM_TNUM BOM_CI BOM_RMW BOM_R34_NE BOM_R34_SE BOM_R34_SW BOM_R34_NW BOM_R50_NE BOM_R50_SE BOM_R50_SW BOM_R50_NW BOM_R64_NE BOM_R64_SE BOM_R64_SW BOM_R64_NW BOM_ROCI BOM_POCI BOM_EYE BOM_POS_METHOD BOM_PRES_METHOD NADI_LAT NADI_LON NADI_CAT NADI_WIND NADI_PRES WELLINGTON_LAT WELLINGTON_LON WELLINGTON_WIND WELLINGTON_PRES DS824_LAT DS824_LON DS824_STAGE DS824_WIND DS824_PRES TD9636_LAT TD9636_LON TD9636_STAGE TD9636_WIND TD9636_PRES TD9635_LAT TD9635_LON TD9635_WIND TD9635_PRES TD9635_ROCI NEUMANN_LAT NEUMANN_LON NEUMANN_CLASS NEUMANN_WIND NEUMANN_PRES MLC_LAT MLC_LON MLC_CLASS MLC_WIND MLC_PRES USA_GUST BOM_GUST BOM_GUST_PER REUNION_GUST REUNION_GUST_PER USA_SEAHGT USA_SEARAD_NE USA_SEARAD_SE USA_SEARAD_SW USA_SEARAD_NW STORM_SPEED STORM_DIR
1980204N23287 1980 53 NA NA NOT_NAMED 1980-07-22 00:00:00 TS 23.2000 -73.5000 20 hurdat_atl main 225 225 O_____________ hurdat_atl AL031980 23.2000 -73.5000 TD 20 -1 12 308
1980204N23287 1980 53 NA NA NOT_NAMED 1980-07-22 03:00:00 TS 23.5704 -74.0071 main 280 280 P_____________ AL031980 23.5704 -74.0071 TD 22 -1 12 311
1980204N23287 1980 53 NA NA NOT_NAMED 1980-07-22 06:00:00 TS 24.0000 -74.5000 25 hurdat_atl main 329 283 O_____________ hurdat_atl AL031980 24.0000 -74.5000 TD 25 -1 13 318
1980204N23287 1980 53 NA NA NOT_NAMED 1980-07-22 09:00:00 TS 24.5274 -74.9651 main 273 238 P_____________ AL031980 24.5274 -74.9651 TD 25 -1 14 323
1980204N23287 1980 53 NA NA NOT_NAMED 1980-07-22 12:00:00 TS 25.1000 -75.4000 25 hurdat_atl main 241 224 O_____________ hurdat_atl AL031980 25.1000 -75.4000 TD 25 -1 14 326
1980204N23287 1980 53 NA NA NOT_NAMED 1980-07-22 15:00:00 TS 25.6724 -75.8226 main 229 212 P_____________ AL031980 25.6724 -75.8226 TD 27 -1 13 327
1980204N23287 1980 53 NA NA NOT_NAMED 1980-07-22 18:00:00 TS 26.2000 -76.2000 30 hurdat_atl main 218 216 O_____________ hurdat_atl AL031980 26.2000 -76.2000 TD 30 -1 11 326
1980204N23287 1980 53 NA NA NOT_NAMED 1980-07-22 21:00:00 TS 26.5923 -76.5158 main 224 224 P_____________ AL031980 26.5923 -76.5158 TD 30 -1 10 326
1980204N23287 1980 53 NA NA NOT_NAMED 1980-07-23 00:00:00 TS 27.0000 -76.8000 30 hurdat_atl main 243 243 O_____________ hurdat_atl AL031980 27.0000 -76.8000 TD 30 -1 11 332
1980204N23287 1980 53 NA NA NOT_NAMED 1980-07-23 03:00:00 TS 27.5775 -77.1148 main 293 292 P_____________ AL031980 27.5775 -77.1148 TD 30 -1 13 336
1980204N23287 1980 53 NA NA NOT_NAMED 1980-07-23 06:00:00 TS 28.2000 -77.4000 30 hurdat_atl main 297 283 O_____________ hurdat_atl AL031980 28.2000 -77.4000 TD 30 -1 12 338
1980204N23287 1980 53 NA NA NOT_NAMED 1980-07-23 09:00:00 TS 28.7275 -77.6524 main 273 268 P_____________ AL031980 28.7275 -77.6524 TD 30 -1 12 342
1980204N23287 1980 53 NA NA NOT_NAMED 1980-07-23 12:00:00 TS 29.3000 -77.8000 30 hurdat_atl main 277 277 O_____________ hurdat_atl AL031980 29.3000 -77.8000 TD 30 -1 13 354
1980204N23287 1980 53 NA NA NOT_NAMED 1980-07-23 15:00:00 TS 30.0574 -77.8029 main 316 293 P_____________ AL031980 30.0574 -77.8029 TD 30 -1 15 3
1980204N23287 1980 53 NA NA NOT_NAMED 1980-07-23 18:00:00 TS 30.8000 -77.7000 30 hurdat_atl main 293 254 O_____________ hurdat_atl AL031980 30.8000 -77.7000 TD 30 -1 13 8
1980204N23287 1980 53 NA NA NOT_NAMED 1980-07-23 21:00:00 TS 31.3224 -77.5870 main 254 229 P_____________ AL031980 31.3224 -77.5870 TD 30 -1 10 14
1980204N23287 1980 53 NA NA NOT_NAMED 1980-07-24 00:00:00 TS 31.8000 -77.4000 30 hurdat_atl main 229 183 O_____________ hurdat_atl AL031980 31.8000 -77.4000 TD 30 -1 11 19
1980204N23287 1980 53 NA NA NOT_NAMED 1980-07-24 03:00:00 TS 32.3998 -77.1522 main 183 149 P_____________ AL031980 32.3998 -77.1522 TD 30 -1 13 23
1980204N23287 1980 53 NA NA NOT_NAMED 1980-07-24 06:00:00 TS 33.0000 -76.8000 30 hurdat_atl main 149 134 O_____________ hurdat_atl AL031980 33.0000 -76.8000 TD 30 -1 13 30
1980204N23287 1980 53 NA NA NOT_NAMED 1980-07-24 09:00:00 TS 33.5065 -76.3958 main 134 100 P_____________ AL031980 33.5065 -76.3958 TD 30 -1 13 40
1980204N23287 1980 53 NA NA NOT_NAMED 1980-07-24 12:00:00 TS 34.0000 -75.8000 30 hurdat_atl main 100 99 O_____________ hurdat_atl AL031980 34.0000 -75.8000 TD 30 -1 16 49
1980204N23287 1980 53 NA NA NOT_NAMED 1980-07-24 15:00:00 TS 34.5581 -74.9182 main 131 129 P_____________ AL031980 34.5581 -74.9182 TD 27 -1 19 55
1980204N23287 1980 53 NA NA NOT_NAMED 1980-07-24 18:00:00 TS 35.1000 -73.9000 25 hurdat_atl main 164 164 O_____________ hurdat_atl AL031980 35.1000 -73.9000 TD 25 -1 19 57
1980204N23287 1980 53 NA NA NOT_NAMED 1980-07-24 21:00:00 TS 35.5940 -72.9569 main 226 226 P_____________ AL031980 35.5940 -72.9569 TD 25 -1 18 60
1980204N23287 1980 53 NA NA NOT_NAMED 1980-07-25 00:00:00 TS 36.0000 -72.0000 25 hurdat_atl main 315 315 O_____________ hurdat_atl AL031980 36.0000 -72.0000 TD 25 -1 17 67
1980204N23287 1980 53 NA NA NOT_NAMED 1980-07-25 03:00:00 TS 36.2797 -70.9910 main 407 407 P_____________ AL031980 36.2797 -70.9910 TD 25 -1 17 73
1980204N23287 1980 53 NA NA NOT_NAMED 1980-07-25 06:00:00 TS 36.5000 -70.0000 25 hurdat_atl main 491 491 O_____________ hurdat_atl AL031980 36.5000 -70.0000 TD 25 -1 16 72
1980204N23287 1980 53 NA NA NOT_NAMED 1980-07-25 09:00:00 TS 36.7707 -69.1149 main 538 537 P_____________ AL031980 36.7707 -69.1149 TD 25 -1 15 71
1980204N23287 1980 53 NA NA NOT_NAMED 1980-07-25 12:00:00 TS 37.0000 -68.2000 25 hurdat_atl main 544 544 O_____________ hurdat_atl AL031980 37.0000 -68.2000 TD 25 -1 16 78
1980204N23287 1980 53 NA NA NOT_NAMED 1980-07-25 15:00:00 TS 37.1077 -67.1134 main 569 569 P_____________ AL031980 37.1077 -67.1134 TD 22 -1 18 83
1980204N23287 1980 53 NA NA NOT_NAMED 1980-07-25 18:00:00 TS 37.2000 -66.0000 20 hurdat_atl main 606 606 O_____________ hurdat_atl AL031980 37.2000 -66.0000 TD 20 -1 17 81
1980204N23287 1980 53 NA NA NOT_NAMED 1980-07-25 21:00:00 TS 37.3734 -64.9720 main 641 641 P_____________ AL031980 37.3734 -64.9720 TD 20 -1 16 76
1980204N23287 1980 53 NA NA NOT_NAMED 1980-07-26 00:00:00 TS 37.6000 -64.0000 20 hurdat_atl main 665 O_____________ hurdat_atl AL031980 37.6000 -64.0000 TD 20 -1 16 74

IBTrACS Databaseについて

本データベースは、米国NOAAが公開する1842年以降の世界の熱帯低気圧のベストトラックデータアーカイブInternational Best Track Archive for Climate Stewardship (IBTrACS)を、ウェブで閲覧しやすい形式に変換したものです。

最終更新日:2021-10-08